Terminal Aerodrome Forecast
Issued by NWS

Home | Current Version | Previous Version | Text Only | Print | Product List | Glossary Off
Versions: 1 2 3 4 5 6 7 8 9 10 11 12 13 14 15 16 17 18

000
FTUS43 KGRB 011724
TAFATW
TAF
KATW 011724Z 0118/0218 20006KT P6SM SCT050
     FM020100 21004KT P6SM SCT250
     FM020400 VRB03KT 5SM BR SCT140 BKN250
     FM020900 VRB03KT 4SM BR FEW004 SCT140 BKN250
      TEMPO 0209/0213 1SM BR SCT004 BKN140
     FM021400 29004KT P6SM SCT020 BKN120 PROB30 0216/0218 5SM -SHRA
      BR BKN020=

USA.gov is the U.S. government's official web portal to all federal, state and local government web resources and services.